sensor_id;sensor_type;location;lat;lon;timestamp;P1;durP1;ratioP1;P2;durP2;ratioP2
5077;SDS011;2557;51.390;7.494;2024-01-27T00:00:37;21.65;;;5.65;;
5077;SDS011;2557;51.390;7.494;2024-01-27T00:03:03;11.77;;;5.10;;
5077;SDS011;2557;51.390;7.494;2024-01-27T00:05:29;10.80;;;5.50;;
5077;SDS011;2557;51.390;7.494;2024-01-27T00:07:55;17.75;;;4.82;;
5077;SDS011;2557;51.390;7.494;2024-01-27T00:10:21;12.80;;;5.27;;
5077;SDS011;2557;51.390;7.494;2024-01-27T00:12:47;24.60;;;5.97;;
5077;SDS011;2557;51.390;7.494;2024-01-27T00:15:13;7.60;;;4.60;;
5077;SDS011;2557;51.390;7.494;2024-01-27T00:17:39;31.15;;;6.28;;
5077;SDS011;2557;51.390;7.494;2024-01-27T00:20:05;19.95;;;5.50;;
5077;SDS011;2557;51.390;7.494;2024-01-27T00:22:32;10.40;;;4.22;;
5077;SDS011;2557;51.390;7.494;2024-01-27T00:24:57;15.73;;;4.93;;
5077;SDS011;2557;51.390;7.494;2024-01-27T00:27:23;23.10;;;5.80;;
5077;SDS011;2557;51.390;7.494;2024-01-27T00:29:50;19.58;;;4.82;;
5077;SDS011;2557;51.390;7.494;2024-01-27T00:32:16;12.45;;;5.53;;
5077;SDS011;2557;51.390;7.494;2024-01-27T00:34:42;17.48;;;4.55;;
5077;SDS011;2557;51.390;7.494;2024-01-27T00:37:08;12.40;;;4.40;;
5077;SDS011;2557;51.390;7.494;2024-01-27T00:39:34;31.60;;;6.00;;
5077;SDS011;2557;51.390;7.494;2024-01-27T00:42:00;29.60;;;5.30;;
5077;SDS011;2557;51.390;7.494;2024-01-27T00:44:26;23.33;;;5.25;;
5077;SDS011;2557;51.390;7.494;2024-01-27T00:46:52;12.13;;;4.77;;
5077;SDS011;2557;51.390;7.494;2024-01-27T00:49:18;7.97;;;5.00;;
5077;SDS011;2557;51.390;7.494;2024-01-27T00:51:44;12.25;;;5.38;;
5077;SDS011;2557;51.390;7.494;2024-01-27T00:54:10;11.43;;;5.07;;
5077;SDS011;2557;51.390;7.494;2024-01-27T00:56:36;15.27;;;6.30;;
5077;SDS011;2557;51.390;7.494;2024-01-27T00:59:02;19.67;;;5.80;;
5077;SDS011;2557;51.390;7.494;2024-01-27T01:01:28;18.63;;;5.37;;
5077;SDS011;2557;51.390;7.494;2024-01-27T01:03:54;24.33;;;5.30;;
5077;SDS011;2557;51.390;7.494;2024-01-27T01:06:19;18.83;;;5.33;;
5077;SDS011;2557;51.390;7.494;2024-01-27T01:08:45;10.20;;;5.10;;
5077;SDS011;2557;51.390;7.494;2024-01-27T01:11:11;21.23;;;5.07;;
5077;SDS011;2557;51.390;7.494;2024-01-27T01:13:38;26.63;;;5.75;;
5077;SDS011;2557;51.390;7.494;2024-01-27T01:16:04;13.50;;;4.70;;
5077;SDS011;2557;51.390;7.494;2024-01-27T01:18:30;25.60;;;5.75;;
5077;SDS011;2557;51.390;7.494;2024-01-27T01:20:56;14.00;;;4.17;;
5077;SDS011;2557;51.390;7.494;2024-01-27T01:23:22;9.50;;;4.32;;
5077;SDS011;2557;51.390;7.494;2024-01-27T01:25:48;15.27;;;6.30;;
5077;SDS011;2557;51.390;7.494;2024-01-27T01:28:14;17.52;;;4.85;;
5077;SDS011;2557;51.390;7.494;2024-01-27T01:30:40;12.53;;;3.70;;
5077;SDS011;2557;51.390;7.494;2024-01-27T01:33:06;20.47;;;5.47;;
5077;SDS011;2557;51.390;7.494;2024-01-27T01:35:32;12.63;;;5.22;;
5077;SDS011;2557;51.390;7.494;2024-01-27T01:37:58;17.42;;;4.25;;
5077;SDS011;2557;51.390;7.494;2024-01-27T01:40:24;17.57;;;5.00;;
5077;SDS011;2557;51.390;7.494;2024-01-27T01:42:50;14.63;;;5.10;;
5077;SDS011;2557;51.390;7.494;2024-01-27T01:45:17;10.48;;;4.85;;
5077;SDS011;2557;51.390;7.494;2024-01-27T01:47:43;15.88;;;4.05;;
5077;SDS011;2557;51.390;7.494;2024-01-27T01:50:09;13.18;;;5.13;;
5077;SDS011;2557;51.390;7.494;2024-01-27T01:52:36;9.82;;;4.18;;
5077;SDS011;2557;51.390;7.494;2024-01-27T01:55:02;9.57;;;4.82;;
5077;SDS011;2557;51.390;7.494;2024-01-27T01:57:29;10.95;;;4.13;;
5077;SDS011;2557;51.390;7.494;2024-01-27T01:59:55;23.70;;;6.07;;
5077;SDS011;2557;51.390;7.494;2024-01-27T02:02:22;10.00;;;5.10;;
5077;SDS011;2557;51.390;7.494;2024-01-27T02:04:48;9.77;;;3.95;;
5077;SDS011;2557;51.390;7.494;2024-01-27T02:07:14;9.50;;;4.60;;
5077;SDS011;2557;51.390;7.494;2024-01-27T02:09:40;8.60;;;5.25;;
5077;SDS011;2557;51.390;7.494;2024-01-27T02:12:06;13.75;;;4.85;;
5077;SDS011;2557;51.390;7.494;2024-01-27T02:14:32;12.38;;;4.88;;
5077;SDS011;2557;51.390;7.494;2024-01-27T02:16:58;16.98;;;5.50;;
5077;SDS011;2557;51.390;7.494;2024-01-27T02:19:24;11.23;;;5.22;;
5077;SDS011;2557;51.390;7.494;2024-01-27T02:21:50;17.38;;;4.80;;
5077;SDS011;2557;51.390;7.494;2024-01-27T02:24:16;6.90;;;4.83;;
5077;SDS011;2557;51.390;7.494;2024-01-27T02:26:42;13.15;;;4.90;;
5077;SDS011;2557;51.390;7.494;2024-01-27T02:29:08;11.15;;;4.32;;
5077;SDS011;2557;51.390;7.494;2024-01-27T02:31:34;13.05;;;5.07;;
5077;SDS011;2557;51.390;7.494;2024-01-27T02:34:00;16.77;;;5.43;;
5077;SDS011;2557;51.390;7.494;2024-01-27T02:36:26;12.05;;;4.53;;
5077;SDS011;2557;51.390;7.494;2024-01-27T02:38:52;19.83;;;4.90;;
5077;SDS011;2557;51.390;7.494;2024-01-27T02:41:18;9.05;;;5.05;;
5077;SDS011;2557;51.390;7.494;2024-01-27T02:43:44;12.33;;;4.10;;
5077;SDS011;2557;51.390;7.494;2024-01-27T02:46:11;9.10;;;3.80;;
5077;SDS011;2557;51.390;7.494;2024-01-27T02:48:41;14.02;;;5.13;;
5077;SDS011;2557;51.390;7.494;2024-01-27T02:51:07;16.80;;;4.60;;
5077;SDS011;2557;51.390;7.494;2024-01-27T02:53:33;16.65;;;4.65;;
5077;SDS011;2557;51.390;7.494;2024-01-27T02:55:59;8.33;;;4.20;;
5077;SDS011;2557;51.390;7.494;2024-01-27T02:58:25;11.93;;;5.30;;
5077;SDS011;2557;51.390;7.494;2024-01-27T03:00:51;14.80;;;5.55;;
5077;SDS011;2557;51.390;7.494;2024-01-27T03:03:18;11.68;;;7.25;;
5077;SDS011;2557;51.390;7.494;2024-01-27T03:05:44;19.75;;;6.57;;
5077;SDS011;2557;51.390;7.494;2024-01-27T03:08:10;13.40;;;5.60;;
5077;SDS011;2557;51.390;7.494;2024-01-27T03:10:36;26.37;;;4.70;;
5077;SDS011;2557;51.390;7.494;2024-01-27T03:13:02;14.27;;;6.57;;
5077;SDS011;2557;51.390;7.494;2024-01-27T03:15:28;14.30;;;5.72;;
5077;SDS011;2557;51.390;7.494;2024-01-27T03:17:54;19.30;;;6.55;;
5077;SDS011;2557;51.390;7.494;2024-01-27T03:20:20;17.02;;;9.73;;
5077;SDS011;2557;51.390;7.494;2024-01-27T03:22:46;22.92;;;9.60;;
5077;SDS011;2557;51.390;7.494;2024-01-27T03:25:13;20.90;;;8.82;;
5077;SDS011;2557;51.390;7.494;2024-01-27T03:27:39;25.70;;;9.73;;
5077;SDS011;2557;51.390;7.494;2024-01-27T03:30:05;15.90;;;8.65;;
5077;SDS011;2557;51.390;7.494;2024-01-27T03:32:32;36.10;;;9.32;;
5077;SDS011;2557;51.390;7.494;2024-01-27T03:35:01;14.82;;;8.15;;
5077;SDS011;2557;51.390;7.494;2024-01-27T03:37:28;24.85;;;8.88;;
5077;SDS011;2557;51.390;7.494;2024-01-27T03:39:54;23.27;;;7.57;;
5077;SDS011;2557;51.390;7.494;2024-01-27T03:42:20;23.40;;;8.35;;
5077;SDS011;2557;51.390;7.494;2024-01-27T03:44:46;18.05;;;8.95;;
5077;SDS011;2557;51.390;7.494;2024-01-27T03:47:12;13.27;;;7.55;;
5077;SDS011;2557;51.390;7.494;2024-01-27T03:49:38;15.73;;;9.50;;
5077;SDS011;2557;51.390;7.494;2024-01-27T03:52:05;24.45;;;8.10;;
5077;SDS011;2557;51.390;7.494;2024-01-27T03:54:31;15.98;;;7.30;;
5077;SDS011;2557;51.390;7.494;2024-01-27T03:56:57;15.30;;;7.00;;
5077;SDS011;2557;51.390;7.494;2024-01-27T03:59:23;15.60;;;8.47;;
5077;SDS011;2557;51.390;7.494;2024-01-27T04:01:49;20.53;;;7.93;;
5077;SDS011;2557;51.390;7.494;2024-01-27T04:04:16;27.60;;;6.90;;
5077;SDS011;2557;51.390;7.494;2024-01-27T04:06:42;16.27;;;5.97;;
5077;SDS011;2557;51.390;7.494;2024-01-27T04:09:08;13.23;;;6.60;;
5077;SDS011;2557;51.390;7.494;2024-01-27T04:11:34;12.80;;;5.22;;
5077;SDS011;2557;51.390;7.494;2024-01-27T04:14:01;14.18;;;6.00;;
5077;SDS011;2557;51.390;7.494;2024-01-27T04:16:27;12.27;;;6.30;;
5077;SDS011;2557;51.390;7.494;2024-01-27T04:18:54;14.68;;;6.88;;
5077;SDS011;2557;51.390;7.494;2024-01-27T04:21:20;20.27;;;6.10;;
5077;SDS011;2557;51.390;7.494;2024-01-27T04:23:46;19.52;;;6.10;;
5077;SDS011;2557;51.390;7.494;2024-01-27T04:26:12;10.85;;;5.88;;
5077;SDS011;2557;51.390;7.494;2024-01-27T04:28:38;13.45;;;6.65;;
5077;SDS011;2557;51.390;7.494;2024-01-27T04:31:04;13.35;;;6.20;;
5077;SDS011;2557;51.390;7.494;2024-01-27T04:33:31;13.07;;;6.00;;
5077;SDS011;2557;51.390;7.494;2024-01-27T04:35:57;11.47;;;5.43;;
5077;SDS011;2557;51.390;7.494;2024-01-27T04:38:23;15.13;;;6.75;;
5077;SDS011;2557;51.390;7.494;2024-01-27T04:40:49;20.58;;;8.75;;
5077;SDS011;2557;51.390;7.494;2024-01-27T04:43:15;22.45;;;7.13;;
5077;SDS011;2557;51.390;7.494;2024-01-27T04:45:41;18.67;;;6.55;;
5077;SDS011;2557;51.390;7.494;2024-01-27T04:48:07;14.75;;;7.63;;
5077;SDS011;2557;51.390;7.494;2024-01-27T04:50:34;14.18;;;7.60;;
5077;SDS011;2557;51.390;7.494;2024-01-27T04:53:00;12.30;;;7.00;;
5077;SDS011;2557;51.390;7.494;2024-01-27T04:55:26;19.00;;;7.18;;
5077;SDS011;2557;51.390;7.494;2024-01-27T04:57:52;11.07;;;5.95;;
5077;SDS011;2557;51.390;7.494;2024-01-27T05:00:18;42.78;;;7.95;;
5077;SDS011;2557;51.390;7.494;2024-01-27T05:02:44;19.20;;;7.03;;
5077;SDS011;2557;51.390;7.494;2024-01-27T05:05:10;22.95;;;7.07;;
5077;SDS011;2557;51.390;7.494;2024-01-27T05:07:37;12.20;;;5.22;;
5077;SDS011;2557;51.390;7.494;2024-01-27T05:10:03;13.40;;;6.15;;
5077;SDS011;2557;51.390;7.494;2024-01-27T05:12:29;13.10;;;6.60;;
5077;SDS011;2557;51.390;7.494;2024-01-27T05:14:55;25.95;;;6.75;;
5077;SDS011;2557;51.390;7.494;2024-01-27T05:17:21;17.83;;;6.05;;
5077;SDS011;2557;51.390;7.494;2024-01-27T05:19:49;21.65;;;8.60;;
5077;SDS011;2557;51.390;7.494;2024-01-27T05:22:15;14.35;;;8.20;;
5077;SDS011;2557;51.390;7.494;2024-01-27T05:24:41;23.30;;;7.22;;
5077;SDS011;2557;51.390;7.494;2024-01-27T05:27:08;25.30;;;8.95;;
5077;SDS011;2557;51.390;7.494;2024-01-27T05:29:36;13.70;;;6.07;;
5077;SDS011;2557;51.390;7.494;2024-01-27T05:32:02;17.58;;;8.27;;
5077;SDS011;2557;51.390;7.494;2024-01-27T05:34:28;15.63;;;7.70;;
5077;SDS011;2557;51.390;7.494;2024-01-27T05:36:54;22.60;;;7.83;;
5077;SDS011;2557;51.390;7.494;2024-01-27T05:39:20;18.85;;;7.50;;
5077;SDS011;2557;51.390;7.494;2024-01-27T05:41:46;20.83;;;8.95;;
5077;SDS011;2557;51.390;7.494;2024-01-27T05:44:12;12.50;;;7.07;;
5077;SDS011;2557;51.390;7.494;2024-01-27T05:46:38;11.90;;;6.87;;
5077;SDS011;2557;51.390;7.494;2024-01-27T05:49:04;21.65;;;7.32;;
5077;SDS011;2557;51.390;7.494;2024-01-27T05:51:30;21.10;;;9.03;;
5077;SDS011;2557;51.390;7.494;2024-01-27T05:53:56;18.42;;;8.52;;
5077;SDS011;2557;51.390;7.494;2024-01-27T05:56:22;20.67;;;9.07;;
5077;SDS011;2557;51.390;7.494;2024-01-27T05:58:48;16.33;;;6.50;;
5077;SDS011;2557;51.390;7.494;2024-01-27T06:01:14;21.80;;;8.30;;
5077;SDS011;2557;51.390;7.494;2024-01-27T06:03:41;15.40;;;7.53;;
5077;SDS011;2557;51.390;7.494;2024-01-27T06:06:07;24.27;;;8.40;;
5077;SDS011;2557;51.390;7.494;2024-01-27T06:08:33;16.02;;;7.93;;
5077;SDS011;2557;51.390;7.494;2024-01-27T06:11:00;20.33;;;9.90;;
5077;SDS011;2557;51.390;7.494;2024-01-27T06:13:26;17.77;;;9.13;;
5077;SDS011;2557;51.390;7.494;2024-01-27T06:15:52;13.40;;;7.82;;
5077;SDS011;2557;51.390;7.494;2024-01-27T06:18:18;22.75;;;8.88;;
5077;SDS011;2557;51.390;7.494;2024-01-27T06:20:44;15.90;;;7.87;;
5077;SDS011;2557;51.390;7.494;2024-01-27T06:23:10;14.70;;;9.02;;
5077;SDS011;2557;51.390;7.494;2024-01-27T06:25:36;24.30;;;10.57;;
5077;SDS011;2557;51.390;7.494;2024-01-27T06:28:02;26.08;;;10.38;;
5077;SDS011;2557;51.390;7.494;2024-01-27T06:30:28;15.63;;;8.52;;
5077;SDS011;2557;51.390;7.494;2024-01-27T06:32:54;17.33;;;8.77;;
5077;SDS011;2557;51.390;7.494;2024-01-27T06:35:20;14.80;;;7.63;;
5077;SDS011;2557;51.390;7.494;2024-01-27T06:37:46;18.23;;;8.60;;
5077;SDS011;2557;51.390;7.494;2024-01-27T06:40:12;18.73;;;9.23;;
5077;SDS011;2557;51.390;7.494;2024-01-27T06:42:38;16.45;;;9.07;;
5077;SDS011;2557;51.390;7.494;2024-01-27T06:45:04;19.27;;;9.65;;
5077;SDS011;2557;51.390;7.494;2024-01-27T06:47:30;18.70;;;11.80;;
5077;SDS011;2557;51.390;7.494;2024-01-27T06:49:56;31.97;;;10.50;;
5077;SDS011;2557;51.390;7.494;2024-01-27T06:52:23;19.52;;;9.27;;
5077;SDS011;2557;51.390;7.494;2024-01-27T06:54:49;22.13;;;7.97;;
5077;SDS011;2557;51.390;7.494;2024-01-27T06:57:18;23.13;;;11.23;;
5077;SDS011;2557;51.390;7.494;2024-01-27T06:59:45;29.45;;;8.77;;
5077;SDS011;2557;51.390;7.494;2024-01-27T07:02:13;21.08;;;9.00;;
5077;SDS011;2557;51.390;7.494;2024-01-27T07:04:39;17.45;;;7.70;;
5077;SDS011;2557;51.390;7.494;2024-01-27T07:07:05;13.45;;;8.15;;
5077;SDS011;2557;51.390;7.494;2024-01-27T07:09:31;14.68;;;7.78;;
5077;SDS011;2557;51.390;7.494;2024-01-27T07:11:57;13.55;;;8.18;;
5077;SDS011;2557;51.390;7.494;2024-01-27T07:14:23;20.17;;;9.07;;
5077;SDS011;2557;51.390;7.494;2024-01-27T07:16:49;16.30;;;8.75;;
5077;SDS011;2557;51.390;7.494;2024-01-27T07:19:15;14.60;;;7.90;;
5077;SDS011;2557;51.390;7.494;2024-01-27T07:21:41;19.35;;;8.02;;
5077;SDS011;2557;51.390;7.494;2024-01-27T07:24:07;22.00;;;7.85;;
5077;SDS011;2557;51.390;7.494;2024-01-27T07:26:34;12.68;;;8.10;;
5077;SDS011;2557;51.390;7.494;2024-01-27T07:29:00;14.77;;;8.17;;
5077;SDS011;2557;51.390;7.494;2024-01-27T07:31:26;17.05;;;10.18;;
5077;SDS011;2557;51.390;7.494;2024-01-27T07:33:52;18.92;;;10.05;;
5077;SDS011;2557;51.390;7.494;2024-01-27T07:36:18;15.00;;;8.60;;
5077;SDS011;2557;51.390;7.494;2024-01-27T07:38:44;15.53;;;8.17;;
5077;SDS011;2557;51.390;7.494;2024-01-27T07:41:10;16.93;;;7.90;;
5077;SDS011;2557;51.390;7.494;2024-01-27T07:43:36;15.80;;;8.73;;
5077;SDS011;2557;51.390;7.494;2024-01-27T07:46:02;20.10;;;7.40;;
5077;SDS011;2557;51.390;7.494;2024-01-27T07:48:28;21.70;;;9.00;;
5077;SDS011;2557;51.390;7.494;2024-01-27T07:50:55;25.90;;;8.85;;
5077;SDS011;2557;51.390;7.494;2024-01-27T07:53:21;13.07;;;9.00;;
5077;SDS011;2557;51.390;7.494;2024-01-27T07:55:47;13.95;;;7.80;;
5077;SDS011;2557;51.390;7.494;2024-01-27T07:58:15;17.35;;;9.25;;
5077;SDS011;2557;51.390;7.494;2024-01-27T08:00:41;16.43;;;9.00;;
5077;SDS011;2557;51.390;7.494;2024-01-27T08:03:07;18.23;;;8.57;;
5077;SDS011;2557;51.390;7.494;2024-01-27T08:05:33;25.07;;;9.20;;
5077;SDS011;2557;51.390;7.494;2024-01-27T08:07:59;23.75;;;10.75;;
5077;SDS011;2557;51.390;7.494;2024-01-27T08:10:25;21.65;;;10.07;;
5077;SDS011;2557;51.390;7.494;2024-01-27T08:12:51;12.43;;;7.20;;
5077;SDS011;2557;51.390;7.494;2024-01-27T08:15:17;12.50;;;8.60;;
5077;SDS011;2557;51.390;7.494;2024-01-27T08:17:43;28.67;;;9.63;;
5077;SDS011;2557;51.390;7.494;2024-01-27T08:20:09;18.08;;;8.43;;
5077;SDS011;2557;51.390;7.494;2024-01-27T08:22:36;21.50;;;8.40;;
5077;SDS011;2557;51.390;7.494;2024-01-27T08:25:02;23.20;;;8.77;;
5077;SDS011;2557;51.390;7.494;2024-01-27T08:27:28;23.20;;;12.05;;
5077;SDS011;2557;51.390;7.494;2024-01-27T08:29:54;25.67;;;11.03;;
5077;SDS011;2557;51.390;7.494;2024-01-27T08:32:20;20.93;;;10.60;;
5077;SDS011;2557;51.390;7.494;2024-01-27T08:34:46;17.20;;;11.00;;
5077;SDS011;2557;51.390;7.494;2024-01-27T08:37:17;24.88;;;10.50;;
5077;SDS011;2557;51.390;7.494;2024-01-27T08:39:43;18.08;;;9.63;;
5077;SDS011;2557;51.390;7.494;2024-01-27T08:42:10;19.85;;;12.07;;
5077;SDS011;2557;51.390;7.494;2024-01-27T08:44:36;17.42;;;10.23;;
5077;SDS011;2557;51.390;7.494;2024-01-27T08:47:02;25.17;;;11.30;;
5077;SDS011;2557;51.390;7.494;2024-01-27T08:49:28;20.63;;;10.75;;
5077;SDS011;2557;51.390;7.494;2024-01-27T08:51:54;21.40;;;11.88;;
5077;SDS011;2557;51.390;7.494;2024-01-27T08:54:20;17.92;;;9.73;;
5077;SDS011;2557;51.390;7.494;2024-01-27T08:56:46;17.23;;;8.70;;
5077;SDS011;2557;51.390;7.494;2024-01-27T08:59:12;12.05;;;8.73;;
5077;SDS011;2557;51.390;7.494;2024-01-27T09:01:38;24.02;;;9.10;;
5077;SDS011;2557;51.390;7.494;2024-01-27T09:04:04;14.80;;;7.90;;
5077;SDS011;2557;51.390;7.494;2024-01-27T09:06:30;13.90;;;7.50;;
5077;SDS011;2557;51.390;7.494;2024-01-27T09:08:56;13.37;;;6.40;;
5077;SDS011;2557;51.390;7.494;2024-01-27T09:11:23;16.03;;;6.67;;
5077;SDS011;2557;51.390;7.494;2024-01-27T09:13:49;15.47;;;6.67;;
5077;SDS011;2557;51.390;7.494;2024-01-27T09:16:17;11.17;;;6.60;;
5077;SDS011;2557;51.390;7.494;2024-01-27T09:18:43;11.77;;;6.20;;
5077;SDS011;2557;51.390;7.494;2024-01-27T09:21:09;14.33;;;5.80;;
5077;SDS011;2557;51.390;7.494;2024-01-27T09:23:36;14.90;;;5.60;;
5077;SDS011;2557;51.390;7.494;2024-01-27T09:26:02;13.80;;;9.30;;
5077;SDS011;2557;51.390;7.494;2024-01-27T09:28:28;14.33;;;6.37;;
5077;SDS011;2557;51.390;7.494;2024-01-27T09:30:54;9.43;;;6.63;;
5077;SDS011;2557;51.390;7.494;2024-01-27T09:33:20;14.53;;;5.60;;
5077;SDS011;2557;51.390;7.494;2024-01-27T09:35:48;26.07;;;5.93;;
5077;SDS011;2557;51.390;7.494;2024-01-27T09:38:14;18.97;;;6.83;;
5077;SDS011;2557;51.390;7.494;2024-01-27T09:40:40;12.10;;;6.50;;
5077;SDS011;2557;51.390;7.494;2024-01-27T09:43:06;13.27;;;5.67;;
5077;SDS011;2557;51.390;7.494;2024-01-27T09:45:36;10.27;;;5.40;;
5077;SDS011;2557;51.390;7.494;2024-01-27T09:48:02;12.40;;;5.33;;
5077;SDS011;2557;51.390;7.494;2024-01-27T09:50:29;13.13;;;5.30;;
5077;SDS011;2557;51.390;7.494;2024-01-27T09:52:55;8.27;;;5.10;;
5077;SDS011;2557;51.390;7.494;2024-01-27T09:55:21;13.47;;;5.50;;
5077;SDS011;2557;51.390;7.494;2024-01-27T09:57:47;11.00;;;4.87;;
5077;SDS011;2557;51.390;7.494;2024-01-27T10:00:13;11.33;;;4.93;;
5077;SDS011;2557;51.390;7.494;2024-01-27T10:02:41;8.70;;;5.43;;
5077;SDS011;2557;51.390;7.494;2024-01-27T10:05:08;20.93;;;6.07;;
5077;SDS011;2557;51.390;7.494;2024-01-27T10:07:34;10.30;;;5.50;;
5077;SDS011;2557;51.390;7.494;2024-01-27T10:10:00;18.97;;;5.97;;
5077;SDS011;2557;51.390;7.494;2024-01-27T10:12:28;16.30;;;5.67;;
5077;SDS011;2557;51.390;7.494;2024-01-27T10:14:54;11.13;;;5.33;;
5077;SDS011;2557;51.390;7.494;2024-01-27T10:17:21;11.30;;;4.90;;
5077;SDS011;2557;51.390;7.494;2024-01-27T10:20:02;13.23;;;5.27;;
5077;SDS011;2557;51.390;7.494;2024-01-27T10:22:29;6.87;;;4.83;;
5077;SDS011;2557;51.390;7.494;2024-01-27T10:24:55;14.80;;;5.10;;
5077;SDS011;2557;51.390;7.494;2024-01-27T10:27:21;10.20;;;4.87;;
5077;SDS011;2557;51.390;7.494;2024-01-27T10:29:53;10.90;;;4.93;;
5077;SDS011;2557;51.390;7.494;2024-01-27T10:32:22;9.03;;;4.17;;
5077;SDS011;2557;51.390;7.494;2024-01-27T10:34:49;8.07;;;4.67;;
5077;SDS011;2557;51.390;7.494;2024-01-27T10:37:15;7.43;;;4.33;;
5077;SDS011;2557;51.390;7.494;2024-01-27T10:39:42;13.23;;;4.80;;
5077;SDS011;2557;51.390;7.494;2024-01-27T10:42:08;12.10;;;5.40;;
5077;SDS011;2557;51.390;7.494;2024-01-27T10:44:35;11.50;;;5.20;;
5077;SDS011;2557;51.390;7.494;2024-01-27T10:47:03;11.40;;;4.10;;
5077;SDS011;2557;51.390;7.494;2024-01-27T10:49:30;10.50;;;3.90;;
5077;SDS011;2557;51.390;7.494;2024-01-27T10:51:57;10.73;;;4.00;;
5077;SDS011;2557;51.390;7.494;2024-01-27T10:54:26;11.27;;;4.43;;
5077;SDS011;2557;51.390;7.494;2024-01-27T10:56:53;10.63;;;4.00;;
5077;SDS011;2557;51.390;7.494;2024-01-27T10:59:21;13.90;;;4.67;;
5077;SDS011;2557;51.390;7.494;2024-01-27T11:01:48;9.20;;;4.10;;
5077;SDS011;2557;51.390;7.494;2024-01-27T11:04:18;9.77;;;3.70;;
5077;SDS011;2557;51.390;7.494;2024-01-27T11:06:45;10.27;;;3.50;;
5077;SDS011;2557;51.390;7.494;2024-01-27T11:09:12;14.37;;;4.33;;
5077;SDS011;2557;51.390;7.494;2024-01-27T11:11:40;14.07;;;4.60;;
5077;SDS011;2557;51.390;7.494;2024-01-27T11:14:07;11.70;;;4.30;;
5077;SDS011;2557;51.390;7.494;2024-01-27T11:16:34;10.07;;;4.17;;
5077;SDS011;2557;51.390;7.494;2024-01-27T11:19:00;10.00;;;4.50;;
5077;SDS011;2557;51.390;7.494;2024-01-27T11:21:27;7.50;;;3.97;;
5077;SDS011;2557;51.390;7.494;2024-01-27T11:23:53;9.90;;;4.30;;
5077;SDS011;2557;51.390;7.494;2024-01-27T11:26:20;10.57;;;4.23;;
5077;SDS011;2557;51.390;7.494;2024-01-27T11:28:48;10.03;;;4.57;;
5077;SDS011;2557;51.390;7.494;2024-01-27T11:31:15;14.13;;;4.40;;
5077;SDS011;2557;51.390;7.494;2024-01-27T11:33:42;12.43;;;4.27;;
5077;SDS011;2557;51.390;7.494;2024-01-27T11:36:14;8.47;;;3.80;;
5077;SDS011;2557;51.390;7.494;2024-01-27T11:38:43;11.77;;;4.10;;
5077;SDS011;2557;51.390;7.494;2024-01-27T11:41:09;7.60;;;3.60;;
5077;SDS011;2557;51.390;7.494;2024-01-27T11:43:35;14.60;;;3.60;;
5077;SDS011;2557;51.390;7.494;2024-01-27T11:46:01;13.87;;;3.97;;
5077;SDS011;2557;51.390;7.494;2024-01-27T11:48:27;8.43;;;3.70;;
5077;SDS011;2557;51.390;7.494;2024-01-27T11:51:06;7.20;;;3.73;;
5077;SDS011;2557;51.390;7.494;2024-01-27T11:53:33;7.93;;;3.70;;
5077;SDS011;2557;51.390;7.494;2024-01-27T11:55:59;9.63;;;3.60;;
5077;SDS011;2557;51.390;7.494;2024-01-27T11:58:26;8.80;;;3.87;;
5077;SDS011;2557;51.390;7.494;2024-01-27T12:00:52;8.23;;;3.97;;
5077;SDS011;2557;51.390;7.494;2024-01-27T12:03:18;6.13;;;3.80;;
5077;SDS011;2557;51.390;7.494;2024-01-27T12:05:45;10.07;;;3.60;;
5077;SDS011;2557;51.390;7.494;2024-01-27T12:08:11;8.50;;;4.03;;
5077;SDS011;2557;51.390;7.494;2024-01-27T12:10:37;11.43;;;4.10;;
5077;SDS011;2557;51.390;7.494;2024-01-27T12:13:03;12.83;;;4.03;;
5077;SDS011;2557;51.390;7.494;2024-01-27T12:15:29;9.93;;;3.70;;
5077;SDS011;2557;51.390;7.494;2024-01-27T12:17:55;11.60;;;3.90;;
5077;SDS011;2557;51.390;7.494;2024-01-27T12:20:22;9.10;;;4.70;;
5077;SDS011;2557;51.390;7.494;2024-01-27T12:22:48;7.83;;;3.50;;
5077;SDS011;2557;51.390;7.494;2024-01-27T12:25:16;14.77;;;4.70;;
5077;SDS011;2557;51.390;7.494;2024-01-27T12:27:43;8.37;;;3.63;;
5077;SDS011;2557;51.390;7.494;2024-01-27T12:30:09;6.97;;;3.50;;
5077;SDS011;2557;51.390;7.494;2024-01-27T12:32:35;4.73;;;3.00;;
5077;SDS011;2557;51.390;7.494;2024-01-27T12:35:07;6.63;;;3.30;;
5077;SDS011;2557;51.390;7.494;2024-01-27T12:37:34;9.63;;;3.77;;
5077;SDS011;2557;51.390;7.494;2024-01-27T12:40:00;8.20;;;3.20;;
5077;SDS011;2557;51.390;7.494;2024-01-27T12:42:26;8.60;;;3.30;;
5077;SDS011;2557;51.390;7.494;2024-01-27T12:44:52;7.17;;;2.90;;
5077;SDS011;2557;51.390;7.494;2024-01-27T12:47:18;9.00;;;3.40;;
5077;SDS011;2557;51.390;7.494;2024-01-27T12:49:45;5.10;;;3.00;;
5077;SDS011;2557;51.390;7.494;2024-01-27T12:52:11;8.67;;;2.80;;
5077;SDS011;2557;51.390;7.494;2024-01-27T12:54:37;11.93;;;3.13;;
5077;SDS011;2557;51.390;7.494;2024-01-27T12:57:04;11.10;;;3.40;;
5077;SDS011;2557;51.390;7.494;2024-01-27T12:59:32;8.60;;;3.50;;
5077;SDS011;2557;51.390;7.494;2024-01-27T13:01:58;11.20;;;3.93;;
5077;SDS011;2557;51.390;7.494;2024-01-27T13:04:24;11.70;;;3.97;;
5077;SDS011;2557;51.390;7.494;2024-01-27T13:06:53;10.30;;;4.80;;
5077;SDS011;2557;51.390;7.494;2024-01-27T13:09:19;8.70;;;3.77;;
5077;SDS011;2557;51.390;7.494;2024-01-27T13:11:45;5.70;;;3.17;;
5077;SDS011;2557;51.390;7.494;2024-01-27T13:14:11;4.93;;;2.53;;
5077;SDS011;2557;51.390;7.494;2024-01-27T13:16:39;7.77;;;3.47;;
5077;SDS011;2557;51.390;7.494;2024-01-27T13:19:05;8.90;;;3.33;;
5077;SDS011;2557;51.390;7.494;2024-01-27T13:21:31;9.23;;;3.77;;
5077;SDS011;2557;51.390;7.494;2024-01-27T13:23:57;10.83;;;3.90;;
5077;SDS011;2557;51.390;7.494;2024-01-27T13:26:23;10.30;;;3.80;;
5077;SDS011;2557;51.390;7.494;2024-01-27T13:28:49;9.80;;;4.00;;
5077;SDS011;2557;51.390;7.494;2024-01-27T13:31:15;7.97;;;3.63;;
5077;SDS011;2557;51.390;7.494;2024-01-27T13:33:41;8.90;;;3.33;;
5077;SDS011;2557;51.390;7.494;2024-01-27T13:36:07;6.90;;;3.77;;
5077;SDS011;2557;51.390;7.494;2024-01-27T13:38:33;9.80;;;3.90;;
5077;SDS011;2557;51.390;7.494;2024-01-27T13:41:00;8.47;;;3.70;;
5077;SDS011;2557;51.390;7.494;2024-01-27T13:43:26;6.43;;;3.20;;
5077;SDS011;2557;51.390;7.494;2024-01-27T13:45:52;7.27;;;3.60;;
5077;SDS011;2557;51.390;7.494;2024-01-27T13:48:19;6.40;;;3.40;;
5077;SDS011;2557;51.390;7.494;2024-01-27T13:50:45;8.97;;;3.60;;
5077;SDS011;2557;51.390;7.494;2024-01-27T13:53:11;7.10;;;3.30;;
5077;SDS011;2557;51.390;7.494;2024-01-27T13:55:37;5.10;;;3.00;;
5077;SDS011;2557;51.390;7.494;2024-01-27T13:58:05;10.30;;;3.17;;
5077;SDS011;2557;51.390;7.494;2024-01-27T14:00:31;14.13;;;5.83;;
5077;SDS011;2557;51.390;7.494;2024-01-27T14:02:59;8.47;;;3.33;;
5077;SDS011;2557;51.390;7.494;2024-01-27T14:05:25;11.00;;;3.20;;
5077;SDS011;2557;51.390;7.494;2024-01-27T14:07:51;14.00;;;4.67;;
5077;SDS011;2557;51.390;7.494;2024-01-27T14:10:17;6.00;;;3.60;;
5077;SDS011;2557;51.390;7.494;2024-01-27T14:12:43;12.53;;;3.43;;
5077;SDS011;2557;51.390;7.494;2024-01-27T14:15:09;5.47;;;3.80;;
5077;SDS011;2557;51.390;7.494;2024-01-27T14:17:35;13.00;;;4.20;;
5077;SDS011;2557;51.390;7.494;2024-01-27T14:20:02;8.27;;;5.77;;
5077;SDS011;2557;51.390;7.494;2024-01-27T14:22:28;10.10;;;5.03;;
5077;SDS011;2557;51.390;7.494;2024-01-27T14:24:55;9.93;;;4.07;;
5077;SDS011;2557;51.390;7.494;2024-01-27T14:27:21;9.60;;;3.37;;
5077;SDS011;2557;51.390;7.494;2024-01-27T14:29:57;11.03;;;3.67;;
5077;SDS011;2557;51.390;7.494;2024-01-27T14:32:23;6.17;;;2.83;;
5077;SDS011;2557;51.390;7.494;2024-01-27T14:34:49;8.50;;;4.23;;
5077;SDS011;2557;51.390;7.494;2024-01-27T14:37:15;14.97;;;3.90;;
5077;SDS011;2557;51.390;7.494;2024-01-27T14:39:42;4.50;;;2.77;;
5077;SDS011;2557;51.390;7.494;2024-01-27T14:42:10;12.13;;;3.23;;
5077;SDS011;2557;51.390;7.494;2024-01-27T14:44:36;7.10;;;4.07;;
5077;SDS011;2557;51.390;7.494;2024-01-27T14:47:02;9.80;;;3.03;;
5077;SDS011;2557;51.390;7.494;2024-01-27T14:49:29;10.20;;;3.07;;
5077;SDS011;2557;51.390;7.494;2024-01-27T14:51:55;6.17;;;3.73;;
5077;SDS011;2557;51.390;7.494;2024-01-27T14:54:20;10.33;;;3.80;;
5077;SDS011;2557;51.390;7.494;2024-01-27T14:56:46;9.80;;;3.40;;